Nashville, Tennessee
Traffic Map
Current Weather Conditions
Nashville, Tennessee
Scattered Clouds
Scattered Clouds
27°
Feels Like: 28°
Wind Chill: 27° Ceiling: Unl
Heat Index: 28° Visibility: 10mi
Dew Point: 20° Wind: 3mph
Humidity: 67% Direction: 170° (S)
Pressure: 30.03in Gusts: 0mph
Raw Report DataKBNA 020153Z 17003KT 10SM SCT250 27/20 A3003 RMK AO2 SLP162 T02670200
Traffic Incident Summary
Active as of:
Severity:
Category:
InformationThere was an issue retrieving the traffic information for this location. Please try a different location or try again shortly.
Advertisements
Track Severe Weather on mobile